Time;durP1;ratioP1;P1;durP2;ratioP2;P2;SDS_P1;SDS_P2;PMS_P1;PMS_P2;Temp;Humidity;BMP_temperature;BMP_pressure;BME280_temperature;BME280_humidity;BME280_pressure;Samples;Min_cycle;Max_cycle;Signal;HPM_P1;HPM_P2
2020/12/19 00:02:06;;;;;;;21.93;13.90;;;-0.50;99.90;;;0.37;50.40;94600.81;4979683;28;20271;-80
2020/12/19 00:04:46;;;;;;;21.10;14.20;;;-0.50;99.90;;;0.38;50.20;94605.84;4979306;28;20200;-81
2020/12/19 00:07:21;;;;;;;19.23;12.87;;;-0.50;99.90;;;0.29;50.06;94606.16;5010150;28;20184;-80
2020/12/19 00:09:52;;;;;;;19.87;13.80;;;-0.50;99.90;;;0.29;50.28;94596.53;4995904;28;20176;-79
2020/12/19 00:12:22;;;;;;;18.27;13.17;;;-0.50;99.90;;;0.39;50.26;94606.66;5012044;28;20197;-80
2020/12/19 00:14:57;;;;;;;21.37;13.67;;;-0.50;99.90;;;0.33;50.11;94600.38;4959578;28;20268;-80
2020/12/19 00:17:23;;;;;;;21.23;13.40;;;-0.60;99.90;;;0.31;50.53;94601.53;4949200;28;20231;-80
2020/12/19 00:19:49;;;;;;;17.13;12.63;;;-0.60;99.90;;;0.32;50.41;94601.38;4983525;28;20546;-80
2020/12/19 00:22:15;;;;;;;19.33;12.77;;;-0.40;99.90;;;0.23;50.31;94604.28;4999624;28;20189;-80
2020/12/19 00:25:10;;;;;;;20.23;13.60;;;-0.60;99.90;;;0.19;50.58;94601.22;4998970;28;20200;-81
2020/12/19 00:27:38;;;;;;;23.90;14.87;;;-0.70;99.90;;;0.27;50.27;94598.50;4943556;28;20217;-80
2020/12/19 00:30:07;;;;;;;21.37;13.17;;;-0.60;99.90;;;0.30;51.02;94590.31;4939956;29;20223;-80
2020/12/19 00:32:45;;;;;;;19.47;12.50;;;-0.60;99.90;;;0.20;50.61;94589.78;4955316;29;20218;-80
2020/12/19 00:35:43;;;;;;;18.93;12.70;;;-0.50;99.90;;;0.21;50.92;94582.78;4956155;29;20399;-80
2020/12/19 00:38:26;;;;;;;19.50;13.53;;;-0.60;99.90;;;0.26;50.58;94575.25;4939762;29;20195;-80
2020/12/19 00:41:05;;;;;;;19.90;13.37;;;-0.60;99.90;;;0.18;50.55;94570.13;4940835;29;20187;-79
2020/12/19 00:43:39;;;;;;;17.20;12.50;;;-0.60;99.90;;;0.26;51.00;94580.44;4924344;29;20211;-80
2020/12/19 00:46:25;;;;;;;20.10;13.63;;;-0.60;99.90;;;0.20;51.08;94571.56;4956371;28;20235;-80
2020/12/19 00:49:01;;;;;;;20.37;13.17;;;-0.60;99.90;;;0.27;51.08;94575.03;4939914;29;20190;-80
2020/12/19 00:51:29;;;;;;;19.93;13.77;;;-0.60;99.90;;;0.23;51.37;94567.78;4908221;29;20632;-80
2020/12/19 00:54:06;;;;;;;20.90;14.30;;;-0.60;99.90;;;0.25;51.00;94571.81;4908882;29;20305;-80
2020/12/19 00:56:45;;;;;;;18.83;13.23;;;-0.60;99.90;;;0.26;51.24;94573.44;4955651;29;20199;-80
2020/12/19 00:59:21;;;;;;;19.63;13.57;;;-0.60;99.90;;;0.31;50.93;94570.28;4961456;28;20194;-80
2020/12/19 01:01:49;;;;;;;19.37;13.27;;;-0.60;99.90;;;0.28;51.71;94557.59;4958896;28;20190;-80
2020/12/19 01:04:16;;;;;;;20.23;13.47;;;-0.60;99.90;;;0.30;51.80;94569.44;4968701;28;20298;-80
2020/12/19 01:06:54;;;;;;;21.40;13.83;;;-0.60;99.90;;;0.31;51.31;94562.44;5005674;28;20182;-80
2020/12/19 01:09:30;;;;;;;23.73;15.03;;;-0.50;99.90;;;0.40;51.28;94564.75;5012168;28;20193;-80
2020/12/19 01:12:05;;;;;;;23.33;14.57;;;-0.50;99.90;;;0.44;51.78;94565.19;5008390;28;20185;-80
2020/12/19 01:14:41;;;;;;;21.73;14.30;;;-0.50;99.90;;;0.34;52.13;94551.66;4998509;28;20184;-81
2020/12/19 01:17:07;;;;;;;23.97;15.60;;;-0.50;99.90;;;0.35;51.94;94554.09;5000261;28;20196;-80
2020/12/19 01:19:35;;;;;;;24.33;15.33;;;-0.50;99.90;;;0.47;52.20;94562.22;4998424;28;20554;-80
2020/12/19 01:22:01;;;;;;;24.70;15.33;;;-0.50;99.90;;;0.48;51.75;94563.81;5016992;28;20198;-80
2020/12/19 01:24:27;;;;;;;29.73;16.83;;;-0.40;99.90;;;0.45;52.01;94561.59;4981995;28;20209;-80
2020/12/19 01:27:02;;;;;;;21.97;14.07;;;-0.50;99.90;;;0.34;52.13;94559.47;4997814;28;20259;-80
2020/12/19 01:29:29;;;;;;;22.60;14.60;;;-0.60;99.90;;;0.30;52.16;94563.47;4998772;28;20177;-79
2020/12/19 01:32:10;;;;;;;21.43;14.43;;;-0.50;99.90;;;0.21;52.36;94561.94;4981958;28;20708;-80
2020/12/19 01:34:47;;;;;;;24.13;14.93;;;-0.60;99.90;;;0.20;52.12;94565.56;4999147;28;20311;-80
2020/12/19 01:37:27;;;;;;;22.17;14.07;;;-0.70;99.90;;;0.22;52.63;94576.59;5010619;28;20201;-80
2020/12/19 01:39:54;;;;;;;21.47;14.40;;;-0.60;99.90;;;0.15;52.70;94562.69;5011323;28;20268;-79
2020/12/19 01:42:37;;;;;;;23.07;14.43;;;-0.60;99.90;;;0.08;52.59;94562.63;4992410;28;20188;-79
2020/12/19 01:45:15;;;;;;;19.33;14.03;;;-0.70;99.90;;;0.11;52.36;94559.63;4978667;28;20583;-80
2020/12/19 01:47:48;;;;;;;19.47;13.20;;;-0.70;99.90;;;0.07;52.92;94561.00;4997203;28;20184;-80
2020/12/19 01:50:19;;;;;;;18.33;13.37;;;-0.80;99.90;;;0.11;52.72;94551.00;4968127;28;20180;-78
2020/12/19 01:53:11;;;;;;;20.17;13.80;;;-0.70;99.90;;;0.04;52.75;94555.34;4981874;28;20264;-79
2020/12/19 01:55:57;;;;;;;22.80;13.13;;;-0.80;99.90;;;0.00;52.68;94565.34;5031245;28;20276;-78
2020/12/19 01:58:54;;;;;;;23.43;14.33;;;-0.90;99.90;;;0.02;52.52;94565.16;4998288;28;20196;-79
2020/12/19 02:01:21;;;;;;;20.80;13.43;;;-0.90;99.90;;;-0.09;52.89;94549.00;4888192;29;20204;-80
2020/12/19 02:03:58;;;;;;;22.17;14.13;;;-1.00;99.90;;;-0.04;53.20;94556.28;4907423;29;20193;-80
2020/12/19 02:06:35;;;;;;;19.20;12.77;;;-0.90;99.90;;;-0.05;52.70;94552.06;4912333;29;20274;-80
2020/12/19 02:09:03;;;;;;;17.53;12.07;;;-0.90;99.90;;;-0.11;52.93;94548.41;4904731;29;20270;-80
2020/12/19 02:11:35;;;;;;;19.93;12.23;;;-1.00;99.90;;;-0.03;53.07;94537.03;4920053;29;20219;-80
2020/12/19 02:14:20;;;;;;;19.00;13.47;;;-0.90;99.90;;;-0.10;53.28;94544.00;4904463;29;20187;-80
2020/12/19 02:17:03;;;;;;;17.43;12.70;;;-1.00;99.90;;;-0.05;53.00;94542.44;4906811;29;20401;-80
2020/12/19 02:19:30;;;;;;;18.03;11.63;;;-0.90;99.90;;;-0.24;53.50;94524.81;4948405;29;20199;-80
2020/12/19 02:21:58;;;;;;;18.10;12.63;;;-1.00;99.90;;;-0.10;52.81;94544.78;4917815;29;20192;-80
2020/12/19 02:24:28;;;;;;;19.03;13.10;;;-1.00;99.90;;;-0.17;53.15;94537.91;4919678;29;20197;-80
2020/12/19 02:26:57;;;;;;;19.80;12.90;;;-1.10;99.90;;;-0.10;53.38;94536.19;4955552;28;20190;-80
2020/12/19 02:29:27;;;;;;;19.07;12.53;;;-1.00;99.90;;;-0.15;53.71;94522.88;4948352;28;20179;-80
2020/12/19 02:31:55;;;;;;;20.83;13.50;;;-0.90;99.90;;;-0.20;53.35;94533.84;4920310;29;20232;-80
2020/12/19 02:34:21;;;;;;;19.20;13.47;;;-1.10;99.90;;;-0.29;53.22;94519.34;4915698;29;20187;-79
2020/12/19 02:36:49;;;;;;;20.43;12.50;;;-1.10;99.90;;;-0.29;53.78;94534.13;4930028;28;20184;-80
2020/12/19 02:39:24;;;;;;;20.47;13.23;;;-1.00;99.90;;;-0.29;53.92;94524.53;4981112;28;20177;-80
2020/12/19 02:41:58;;;;;;;21.40;13.73;;;-1.10;99.90;;;-0.26;53.83;94523.34;4997977;28;20179;-80
2020/12/19 02:44:37;;;;;;;17.80;12.90;;;-1.10;99.90;;;-0.27;54.11;94514.72;5008168;28;20213;-80
2020/12/19 02:47:12;;;;;;;22.97;13.87;;;-1.10;99.90;;;-0.30;53.40;94528.13;4996212;28;20170;-80
2020/12/19 02:50:09;;;;;;;20.50;13.40;;;-1.10;99.90;;;-0.32;54.19;94514.50;4997501;28;20176;-80
2020/12/19 02:52:36;;;;;;;21.97;14.03;;;-1.20;99.90;;;-0.31;53.47;94523.13;4955382;28;20190;-80
2020/12/19 02:55:11;;;;;;;21.47;13.70;;;-1.20;99.90;;;-0.23;54.12;94518.59;4907342;29;20191;-79
2020/12/19 02:57:39;;;;;;;20.13;13.67;;;-1.20;99.90;;;-0.20;53.79;94512.22;4919326;29;20243;-80
2020/12/19 03:00:17;;;;;;;23.37;14.63;;;-1.10;99.90;;;-0.17;53.92;94515.25;4919359;29;20200;-80
2020/12/19 03:03:07;;;;;;;20.50;13.70;;;-1.10;99.90;;;-0.29;54.26;94501.09;4912648;29;20566;-79
2020/12/19 03:05:35;;;;;;;23.07;15.07;;;-1.10;99.90;;;-0.15;54.43;94499.44;4921981;29;20225;-79
2020/12/19 03:08:03;;;;;;;24.17;14.87;;;-1.10;99.90;;;-0.25;54.24;94501.53;4923031;29;20186;-80
2020/12/19 03:10:39;;;;;;;22.23;13.93;;;-1.10;99.90;;;-0.28;54.27;94494.91;4925361;29;20195;-80
2020/12/19 03:13:24;;;;;;;24.30;15.33;;;-1.10;99.90;;;-0.33;54.37;94497.25;4917702;29;20655;-79
2020/12/19 03:15:50;;;;;;;24.30;14.53;;;-1.20;99.90;;;-0.22;54.20;94499.38;4902590;29;20681;-78
2020/12/19 03:18:16;;;;;;;26.27;15.17;;;-1.10;99.90;;;-0.26;54.44;94485.13;4898789;29;20212;-80
2020/12/19 03:20:43;;;;;;;22.97;15.00;;;-1.10;99.90;;;-0.19;54.44;94495.59;4952556;29;20262;-79
2020/12/19 03:23:08;;;;;;;21.10;13.90;;;-1.10;99.90;;;-0.26;54.80;94486.91;4911286;29;20218;-79
2020/12/19 03:25:37;;;;;;;25.10;14.63;;;-1.20;99.90;;;-0.14;54.67;94486.25;4917581;29;20227;-79
2020/12/19 03:28:06;;;;;;;20.53;14.10;;;-1.10;99.90;;;-0.22;54.39;94480.34;4919942;28;20195;-79
2020/12/19 03:30:31;;;;;;;22.30;14.00;;;-1.00;99.90;;;-0.18;54.59;94485.00;4995887;28;20263;-80
2020/12/19 03:33:17;;;;;;;20.77;14.00;;;-1.10;99.90;;;-0.25;54.60;94489.34;4975817;28;20192;-80
2020/12/19 03:35:56;;;;;;;21.27;13.37;;;-1.00;99.90;;;-0.28;54.47;94484.50;4999131;28;20643;-80
2020/12/19 03:38:28;;;;;;;21.17;13.27;;;-1.10;99.90;;;-0.24;55.33;94480.53;5000840;28;20196;-80
2020/12/19 03:41:06;;;;;;;20.77;14.13;;;-1.20;99.90;;;-0.30;55.11;94478.66;5011973;28;20322;-80
2020/12/19 03:43:39;;;;;;;20.30;13.83;;;-1.20;99.90;;;-0.38;54.98;94478.78;4978900;28;20199;-80
2020/12/19 03:46:11;;;;;;;26.20;15.40;;;-1.20;99.90;;;-0.35;54.74;94481.00;4995704;28;20273;-80
2020/12/19 03:48:49;;;;;;;24.20;14.80;;;-1.20;99.90;;;-0.32;55.36;94485.84;4995634;28;20269;-81
2020/12/19 03:51:15;;;;;;;21.20;12.87;;;-1.20;99.90;;;-0.28;54.88;94474.09;4985442;28;20669;-81
2020/12/19 03:53:41;;;;;;;21.70;12.90;;;-1.20;99.90;;;-0.33;55.54;94479.03;5002093;28;20508;-80
2020/12/19 03:56:13;;;;;;;22.83;14.27;;;-1.20;99.90;;;-0.28;55.12;94468.06;5001967;28;20173;-81
2020/12/19 03:58:52;;;;;;;25.90;14.47;;;-1.10;99.90;;;-0.17;55.27;94472.81;4962623;28;20233;-80
2020/12/19 04:01:25;;;;;;;21.30;13.77;;;-1.10;99.90;;;-0.16;55.32;94470.00;5027220;28;20643;-80
2020/12/19 04:03:58;;;;;;;21.10;12.93;;;-1.10;99.90;;;-0.25;55.75;94463.31;4969434;28;20188;-80
2020/12/19 04:06:45;;;;;;;20.80;13.13;;;-1.20;99.90;;;-0.42;55.13;94467.13;4973114;28;20211;-80
2020/12/19 04:09:24;;;;;;;20.70;13.57;;;-1.20;99.90;;;-0.48;55.32;94460.03;5002073;28;20593;-80
2020/12/19 04:11:52;;;;;;;23.57;13.93;;;-1.30;99.90;;;-0.41;55.50;94470.53;4969498;28;20238;-80
2020/12/19 04:14:41;;;;;;;23.87;15.13;;;-1.30;99.90;;;-0.33;55.61;94453.00;4968946;28;20652;-80
2020/12/19 04:17:21;;;;;;;22.97;14.63;;;-1.30;99.90;;;-0.29;55.58;94436.00;5001509;28;20694;-80
2020/12/19 04:19:47;;;;;;;21.13;13.70;;;-1.30;99.90;;;-0.34;55.97;94443.59;4985295;28;20628;-80
2020/12/19 04:22:15;;;;;;;20.20;12.83;;;-1.20;99.90;;;-0.42;55.91;94455.88;4997243;28;20223;-80
2020/12/19 04:24:42;;;;;;;20.93;12.63;;;-1.30;99.90;;;-0.39;55.67;94460.72;5004076;28;20295;-80
2020/12/19 04:27:08;;;;;;;21.93;13.53;;;-1.30;99.90;;;-0.42;56.02;94455.88;4988749;28;20209;-80
2020/12/19 04:29:39;;;;;;;21.77;13.23;;;-1.30;99.90;;;-0.49;55.89;94450.63;4988196;28;20204;-80
2020/12/19 04:32:07;;;;;;;21.00;13.03;;;-1.30;99.90;;;-0.45;55.71;94462.28;5022636;28;20711;-80
2020/12/19 04:34:41;;;;;;;20.43;12.13;;;-1.40;99.90;;;-0.46;55.93;94462.44;5001464;28;20189;-80
2020/12/19 04:37:22;;;;;;;18.87;12.40;;;-1.30;99.90;;;-0.46;56.22;94446.84;5001467;28;20204;-80
2020/12/19 04:39:59;;;;;;;20.87;13.20;;;-1.40;99.90;;;-0.53;56.50;94459.78;5001850;28;20188;-80
2020/12/19 04:42:36;;;;;;;19.97;13.13;;;-1.40;99.90;;;-0.63;56.12;94443.63;4965829;28;20653;-80
2020/12/19 04:45:22;;;;;;;20.53;12.97;;;-1.40;99.90;;;-0.64;55.77;94455.84;5009711;28;20212;-80
2020/12/19 04:47:58;;;;;;;20.07;12.30;;;-1.50;99.90;;;-0.64;55.87;94445.44;5012898;28;20183;-79
2020/12/19 04:50:27;;;;;;;21.87;13.07;;;-1.50;99.90;;;-0.61;56.36;94452.91;5005040;28;20172;-80
2020/12/19 04:52:53;;;;;;;19.80;12.50;;;-1.50;99.90;;;-0.69;56.41;94447.78;4986860;28;20220;-79
2020/12/19 04:55:25;;;;;;;23.13;13.23;;;-1.60;99.90;;;-0.67;56.38;94447.63;4965916;28;20657;-80
2020/12/19 04:58:03;;;;;;;21.43;13.27;;;-1.50;99.90;;;-0.53;56.50;94459.78;5010939;28;20194;-79
2020/12/19 05:00:30;;;;;;;18.97;13.23;;;-1.50;99.90;;;-0.60;56.26;94441.47;5020434;28;20920;-79
2020/12/19 05:03:06;;;;;;;24.40;12.57;;;-1.50;99.90;;;-0.67;56.33;94445.81;4999018;28;20200;-80
2020/12/19 05:05:51;;;;;;;20.90;12.63;;;-1.50;99.90;;;-0.71;56.49;94459.38;4997758;28;20209;-80
2020/12/19 05:08:23;;;;;;;20.07;11.67;;;-1.50;99.90;;;-0.81;56.31;94456.25;4982355;28;20546;-80
2020/12/19 05:11:01;;;;;;;20.40;13.13;;;-1.60;99.90;;;-0.85;56.77;94465.41;4997474;28;20714;-79
2020/12/19 05:13:30;;;;;;;23.10;13.00;;;-1.70;99.90;;;-0.74;56.45;94473.53;5014728;28;20176;-80
2020/12/19 05:16:05;;;;;;;18.97;11.87;;;-1.60;99.90;;;-0.79;56.20;94467.28;4997116;28;20256;-79
2020/12/19 05:18:40;;;;;;;18.97;11.90;;;-1.60;99.90;;;-0.92;56.92;94451.50;4971543;28;20249;-79
2020/12/19 05:21:07;;;;;;;18.10;11.50;;;-1.70;99.90;;;-0.95;56.46;94462.25;4988830;28;20222;-79
2020/12/19 05:23:39;;;;;;;14.87;10.87;;;-1.70;99.90;;;-1.02;56.63;94454.38;5014199;28;20216;-79
2020/12/19 05:26:14;;;;;;;17.17;10.73;;;-1.80;99.90;;;-1.01;56.76;94463.81;4981190;28;20293;-79
2020/12/19 05:28:43;;;;;;;19.20;11.10;;;-1.90;99.90;;;-1.02;56.62;94459.59;5008080;28;20196;-79
2020/12/19 05:31:16;;;;;;;14.43;9.63;;;-1.90;99.90;;;-0.95;56.64;94470.88;4988738;28;20211;-80
2020/12/19 05:33:57;;;;;;;14.93;8.50;;;-1.90;99.90;;;-1.02;56.73;94459.59;5029723;28;20211;-79
2020/12/19 05:36:55;;;;;;;15.53;9.10;;;-1.90;99.90;;;-1.09;56.99;94461.28;4995833;28;20184;-79
2020/12/19 05:39:52;;;;;;;14.50;8.73;;;-1.90;99.90;;;-1.08;56.94;94465.50;4987339;28;20238;-80
2020/12/19 05:42:29;;;;;;;13.23;7.50;;;-1.90;99.90;;;-1.12;57.24;94462.47;5014944;28;20594;-80
2020/12/19 05:45:12;;;;;;;14.60;8.63;;;-2.00;99.90;;;-1.30;56.75;94467.19;4965393;28;20207;-79
2020/12/19 05:47:39;;;;;;;13.00;8.07;;;-2.10;99.90;;;-1.18;56.91;94485.75;4982695;28;20681;-79
2020/12/19 05:50:11;;;;;;;15.97;9.10;;;-2.00;99.90;;;-1.13;57.22;94473.03;4969125;28;20600;-79
2020/12/19 05:52:38;;;;;;;16.47;8.87;;;-2.00;99.90;;;-1.21;57.14;94471.31;4997703;28;20173;-79
2020/12/19 05:55:19;;;;;;;14.90;8.57;;;-2.00;99.90;;;-1.25;57.16;94480.47;4981344;28;20263;-79
2020/12/19 05:57:50;;;;;;;14.00;8.47;;;-2.10;99.90;;;-1.14;57.28;94487.81;4983134;28;20219;-79
2020/12/19 06:00:17;;;;;;;14.57;8.57;;;-2.10;99.90;;;-1.12;57.33;94485.84;4981791;28;20189;-79
2020/12/19 06:02:59;;;;;;;13.40;8.30;;;-2.00;99.90;;;-1.29;57.38;94483.59;4996861;28;20556;-81
2020/12/19 06:06:13;;;;;;;13.33;7.97;;;-2.10;99.90;;;-1.31;57.70;94496.75;4986574;28;20268;-80
2020/12/19 06:08:50;;;;;;;12.77;8.00;;;-2.20;99.90;;;-1.35;57.13;94499.91;4903471;29;20259;-80
2020/12/19 06:11:54;;;;;;;12.47;7.50;;;-2.20;99.90;;;-1.40;57.37;94503.03;4918995;29;20199;-80
2020/12/19 06:14:22;;;;;;;12.00;7.13;;;-2.30;99.90;;;-1.52;57.86;94495.84;4862023;29;20198;-80
2020/12/19 06:17:36;;;;;;;12.67;7.07;;;-2.30;99.90;;;-1.39;57.47;94501.25;4859576;29;20199;-79
2020/12/19 06:20:04;;;;;;;12.23;8.10;;;-2.20;99.90;;;-1.46;57.74;94501.13;4825704;29;20218;-79
2020/12/19 06:22:31;;;;;;;13.97;8.10;;;-2.20;99.90;;;-1.40;57.36;94497.81;4841333;29;20198;-80
2020/12/19 06:24:57;;;;;;;11.83;7.67;;;-2.20;99.90;;;-1.36;57.78;94509.50;4825803;29;20261;-79
2020/12/19 06:27:22;;;;;;;13.87;8.10;;;-2.20;99.90;;;-1.24;57.90;94513.25;4848449;29;20197;-79
2020/12/19 06:30:02;;;;;;;14.53;9.10;;;-2.10;99.90;;;-1.30;57.57;94503.56;4827218;29;20209;-80
2020/12/19 06:33:16;;;;;;;14.13;8.33;;;-2.20;99.90;;;-1.28;57.83;94506.81;4844331;29;20697;-79
2020/12/19 06:35:53;;;;;;;13.57;7.87;;;-2.20;99.90;;;-1.26;57.79;94496.22;4771598;30;20201;-80
2020/12/19 06:39:03;;;;;;;14.27;8.60;;;-2.10;99.90;;;-1.27;57.85;94508.41;4771907;30;20751;-80
2020/12/19 06:41:56;;;;;;;13.47;8.20;;;-2.10;99.90;;;-1.21;57.80;94520.69;4751140;30;20208;-80
2020/12/19 06:44:27;;;;;;;13.50;8.43;;;-2.10;99.90;;;-1.23;58.33;94517.47;4774864;29;20216;-80
2020/12/19 06:47:22;;;;;;;14.60;8.70;;;-2.10;99.90;;;-1.24;57.89;94520.25;4802337;29;20192;-80
2020/12/19 06:49:56;;;;;;;13.37;9.23;;;-2.20;99.90;;;-1.31;57.83;94514.94;4794183;29;20255;-80
2020/12/19 06:52:29;;;;;;;16.70;9.17;;;-2.10;99.90;;;-1.30;57.88;94508.78;4836645;29;20214;-80
2020/12/19 06:55:31;;;;;;;15.17;9.60;;;-2.10;99.90;;;-1.23;58.17;94512.28;4834546;29;20666;-80
2020/12/19 06:58:12;;;;;;;14.80;9.27;;;-2.10;99.90;;;-1.28;58.40;94506.81;4842961;29;20614;-80
2020/12/19 07:00:42;;;;;;;14.83;9.07;;;-2.10;99.90;;;-1.27;58.55;94505.81;4844063;29;20575;-80
2020/12/19 07:03:42;;;;;;;13.80;9.00;;;-2.10;99.90;;;-1.23;58.40;94512.28;4858845;29;20653;-81
2020/12/19 07:07:08;;;;;;;15.67;10.43;;;-2.10;99.90;;;-1.21;58.51;94525.91;4859247;29;20233;-81
2020/12/19 07:10:00;;;;;;;26.87;13.37;;;-2.10;99.90;;;-1.18;58.47;94516.97;4823043;29;20203;-80
2020/12/19 07:12:33;;;;;;;32.30;15.90;;;-2.00;99.90;;;-1.20;58.85;94531.91;4884585;29;20216;-80
2020/12/19 07:16:08;;;;;;;32.23;17.17;;;-2.10;99.90;;;-1.17;58.48;94516.78;4877075;29;20661;-83
2020/12/19 07:18:43;;;;;;;35.13;16.07;;;-2.10;99.90;;;-1.22;58.80;94534.72;4894227;29;20571;-80
2020/12/19 07:21:10;;;;;;;29.47;15.67;;;-2.10;99.90;;;-1.19;58.37;94536.13;4864207;29;20317;-80
2020/12/19 07:24:02;;;;;;;29.27;16.10;;;-2.10;99.90;;;-1.15;58.76;94527.81;4896064;29;20656;-82
2020/12/19 07:26:27;;;;;;;27.90;16.13;;;-2.00;99.90;;;-0.97;58.85;94524.84;4924153;29;20274;-82
2020/12/19 07:29:23;;;;;;;24.00;14.40;;;-1.90;99.90;;;-1.01;58.73;94536.63;4923755;29;20697;-81
2020/12/19 07:32:00;;;;;;;30.33;16.30;;;-1.90;99.90;;;-0.94;58.43;94532.28;4862784;29;20226;-82
2020/12/19 07:34:38;;;;;;;32.93;17.03;;;-1.90;99.90;;;-0.82;59.26;94540.47;4853057;29;20190;-81
2020/12/19 07:37:06;;;;;;;25.50;15.97;;;-1.80;99.90;;;-0.78;58.82;94532.16;4858066;29;20570;-81
2020/12/19 07:39:34;;;;;;;24.07;14.87;;;-1.70;99.90;;;-0.81;59.07;94524.69;4876846;29;20220;-81
2020/12/19 07:42:11;;;;;;;32.50;16.53;;;-1.70;99.90;;;-0.64;58.96;94538.34;4843323;29;20244;-81
2020/12/19 07:44:38;;;;;;;23.00;14.27;;;-1.60;99.90;;;-0.59;59.49;94542.00;4856634;29;20193;-81
2020/12/19 07:47:11;;;;;;;32.73;17.90;;;-1.50;99.90;;;-0.29;59.16;94563.59;4869839;29;20212;-84
2020/12/19 07:49:51;;;;;;;29.67;17.60;;;-1.40;99.90;;;0.21;59.46;94544.50;4859487;29;20205;-80
2020/12/19 07:52:26;;;;;;;24.20;14.43;;;-0.80;99.90;;;0.26;60.04;94526.53;4860818;29;20277;-80
2020/12/19 07:55:24;;;;;;;24.20;14.60;;;-0.70;99.90;;;0.52;59.97;94562.47;4884162;29;20205;-81
2020/12/19 07:57:56;;;;;;;18.20;11.93;;;-0.60;99.90;;;2.10;60.07;94613.13;4807449;29;20333;-82
2020/12/19 08:00:24;;;;;;;15.73;10.53;;;0.40;99.90;;;4.09;60.18;94597.09;4812172;29;20319;-84
2020/12/19 08:02:53;;;;;;;12.70;8.70;;;2.10;99.90;;;6.13;60.95;94559.56;4821247;29;20211;-82
2020/12/19 08:05:54;;;;;;;11.33;6.83;;;4.20;99.90;;;7.76;61.09;94545.97;4826113;29;20219;-81
2020/12/19 08:08:57;;;;;;;19.10;6.13;;;6.30;99.90;;;7.31;61.15;94495.63;4831680;29;20608;-84
2020/12/19 08:11:24;;;;;;;38.93;6.87;;;6.50;99.90;;;7.40;61.41;94516.16;4830616;29;20212;-82
2020/12/19 08:14:02;;;;;;;9.47;7.30;;;6.80;99.90;;;7.97;60.99;94545.34;4829855;29;20208;-82
2020/12/19 08:16:31;;;;;;;9.53;7.70;;;7.30;99.90;;;7.57;61.26;94508.34;4825853;29;20210;-82
2020/12/19 08:18:59;;;;;;;6.80;6.10;;;7.30;99.90;;;7.63;60.90;94531.97;4842970;29;20200;-82
2020/12/19 08:21:26;;;;;;;5.70;4.40;;;7.30;99.90;;;8.45;61.02;94526.56;4839781;29;20298;-82
2020/12/19 08:23:52;;;;;;;4.37;3.97;;;8.00;99.90;;;9.95;61.21;94585.63;4836442;29;20194;-81
2020/12/19 08:26:20;;;;;;;4.20;3.80;;;9.00;99.90;;;11.71;61.59;94570.91;4840083;29;20743;-81
2020/12/19 08:29:09;;;;;;;4.73;4.33;;;10.90;99.90;;;15.02;61.40;94651.94;4842230;29;20559;-87
2020/12/19 08:31:53;;;;;;;4.73;4.33;;;13.80;99.90;;;17.31;61.10;94626.50;4839365;29;20230;-82
2020/12/19 08:34:21;;;;;;;4.60;4.20;;;16.50;98.00;;;18.72;60.90;94542.94;4823755;29;20204;-82
2020/12/19 08:37:20;;;;;;;4.80;4.00;;;18.40;90.30;;;19.70;60.62;94630.13;4852018;29;20207;-81
2020/12/19 08:40:48;;;;;;;3.97;3.57;;;19.90;79.10;;;21.26;60.16;94620.00;4852714;29;20206;-82
2020/12/19 08:43:56;;;;;;;4.60;4.20;;;21.40;72.00;;;22.49;59.90;94568.13;4811307;29;20212;-82
2020/12/19 08:46:24;;;;;;;3.97;3.67;;;23.30;65.40;;;22.54;59.83;94519.28;4831133;29;20322;-81
2020/12/19 08:49:04;;;;;;;4.53;4.13;;;24.00;60.20;;;23.33;59.02;94530.22;4861237;29;20224;-82
2020/12/19 08:51:33;;;;;;;7.43;4.50;;;24.90;57.70;;;22.70;58.82;94400.66;4861303;29;20210;-82
2020/12/19 08:54:22;;;;;;;9.03;5.03;;;24.90;55.50;;;22.43;58.24;94553.16;4858793;29;20218;-82
2020/12/19 08:56:52;;;;;;;4.80;4.50;;;25.00;55.60;;;22.55;58.23;94449.84;4845551;29;20209;-83
2020/12/19 08:59:26;;;;;;;4.80;4.40;;;24.90;54.60;;;22.78;57.88;94551.97;4857347;29;20183;-83
2020/12/19 09:02:12;;;;;;;4.53;4.23;;;25.20;56.40;;;23.77;57.03;94603.81;4860893;29;20277;-83
2020/12/19 09:04:48;;;;;;;4.43;4.13;;;26.10;54.00;;;22.19;57.19;94432.22;4844412;29;20266;-84
2020/12/19 09:07:27;;;;;;;4.43;4.03;;;25.70;53.60;;;23.10;56.60;94601.16;4860015;29;20243;-83
2020/12/19 09:10:27;;;;;;;4.47;4.07;;;25.80;55.00;;;22.74;56.40;94648.34;4860423;29;20210;-84
2020/12/19 09:13:13;;;;;;;4.00;3.70;;;25.30;53.60;;;23.90;56.10;94567.56;4825384;29;20203;-84
2020/12/19 09:15:42;;;;;;;3.90;3.60;;;26.40;51.60;;;23.78;55.89;94522.25;4838096;29;20239;-82
2020/12/19 09:18:37;;;;;;;3.93;3.70;;;26.90;52.10;;;24.27;55.44;94637.06;4893630;29;20301;-83
2020/12/19 09:21:08;;;;;;;4.17;3.87;;;27.50;50.50;;;25.07;55.05;94536.34;4897619;29;20215;-83
2020/12/19 09:23:34;;;;;;;4.40;4.10;;;28.30;49.70;;;25.21;54.56;94509.66;4907155;29;20203;-82
2020/12/19 09:26:05;;;;;;;4.87;4.47;;;28.50;48.80;;;24.64;54.55;94555.84;4897648;29;20194;-82
2020/12/19 09:28:39;;;;;;;4.00;3.70;;;28.00;48.50;;;25.84;54.24;94489.06;4907167;29;20210;-83
2020/12/19 09:31:06;;;;;;;4.80;4.40;;;28.90;48.70;;;27.69;53.78;94572.31;4884579;29;20221;-82
2020/12/19 09:34:03;;;;;;;4.80;4.40;;;29.90;47.40;;;27.06;53.50;94611.63;4899917;29;20687;-83
2020/12/19 09:36:41;;;;;;;6.23;5.63;;;29.70;45.80;;;26.42;52.96;94479.38;4919767;29;20723;-82
2020/12/19 09:39:23;;;;;;;5.37;4.97;;;29.50;45.60;;;26.54;52.54;94609.84;4918281;29;20263;-84
2020/12/19 09:41:49;;;;;;;6.00;5.50;;;29.80;45.20;;;27.25;52.21;94566.19;4915935;29;20206;-84
2020/12/19 09:44:18;;;;;;;5.50;5.10;;;30.30;45.00;;;27.34;51.66;94527.88;4916370;29;20199;-84
2020/12/19 09:46:48;;;;;;;5.73;5.33;;;30.70;44.10;;;28.34;51.48;94488.75;4923830;29;20216;-86
2020/12/19 09:49:14;;;;;;;5.90;5.40;;;31.50;43.40;;;27.65;50.84;94410.69;4954112;28;20216;-83
2020/12/19 09:51:39;;;;;;;5.20;4.80;;;31.00;43.00;;;28.44;50.51;94537.25;4965435;28;20189;-83
2020/12/19 09:54:06;;;;;;;5.27;4.87;;;31.00;43.60;;;29.12;50.16;94502.94;4955139;28;20255;-83
2020/12/19 09:57:07;;;;;;;5.30;4.90;;;31.60;42.90;;;29.11;49.67;94603.19;4976256;28;20213;-88
2020/12/19 09:59:55;;;;;;;4.53;4.23;;;32.00;42.40;;;28.58;49.76;94503.97;4961717;28;20200;-83
2020/12/19 10:02:25;;;;;;;4.70;4.40;;;31.90;41.50;;;27.36;49.34;94422.13;4971489;28;20194;-84
2020/12/19 10:04:51;;;;;;;4.73;4.43;;;31.10;41.80;;;27.87;48.76;94568.00;4958187;28;20187;-84
2020/12/19 10:07:26;;;;;;;5.23;4.83;;;31.30;42.30;;;27.72;48.54;94595.31;4951590;28;20316;-84
2020/12/19 10:09:52;;;;;;;4.73;4.43;;;30.90;42.20;;;27.88;47.82;94493.28;4974857;28;20228;-82
2020/12/19 10:12:40;;;;;;;5.07;4.77;;;30.70;42.70;;;27.70;47.59;94622.16;4971952;28;20196;-83
2020/12/19 10:15:09;;;;;;;5.23;4.83;;;30.40;42.90;;;26.92;47.40;94425.06;5002543;28;20217;-82
2020/12/19 10:17:42;;;;;;;5.40;5.00;;;30.00;42.70;;;27.18;46.81;94578.84;4976187;28;20256;-83
2020/12/19 10:20:36;;;;;;;5.20;4.70;;;30.50;43.20;;;28.42;46.67;94553.19;4989740;28;20213;-82
2020/12/19 10:23:02;;;;;;;4.27;3.97;;;31.40;42.30;;;28.36;46.76;94442.03;4999198;28;20197;-84
2020/12/19 10:25:28;;;;;;;4.50;4.20;;;31.60;41.60;;;28.23;46.23;94501.41;4964828;28;20209;-83
2020/12/19 10:28:02;;;;;;;4.47;4.07;;;31.50;41.70;;;27.77;46.09;94469.72;4980512;28;20636;-83
2020/12/19 10:30:31;;;;;;;6.43;4.07;;;31.30;41.40;;;26.29;45.79;94358.28;4980444;28;20605;-83
2020/12/19 10:33:01;;;;;;;4.83;4.30;;;30.20;41.90;;;23.87;45.37;94443.66;5002025;28;20189;-82
2020/12/19 10:35:33;;;;;;;6.53;4.40;;;28.20;44.40;;;20.65;45.17;94426.91;5015636;28;20218;-82
2020/12/19 10:37:59;;;;;;;12.87;4.40;;;25.00;47.60;;;19.40;44.90;94406.56;5007222;28;20185;-83
2020/12/19 10:40:37;;;;;;;6.60;4.30;;;23.30;50.50;;;18.47;44.97;94500.47;4963571;28;20238;-83
2020/12/19 10:43:05;;;;;;;7.47;4.23;;;21.80;53.40;;;19.10;44.54;94520.13;4988697;28;20188;-83
2020/12/19 10:45:36;;;;;;;7.97;4.43;;;21.50;54.90;;;19.78;44.79;94452.63;5012391;28;20192;-82
2020/12/19 10:48:03;;;;;;;4.93;4.53;;;21.90;54.30;;;21.35;44.49;94537.22;4976836;28;20679;-83
2020/12/19 10:50:39;;;;;;;4.67;4.30;;;22.80;53.50;;;23.18;44.52;94533.47;4995255;28;20196;-81
2020/12/19 10:53:14;;;;;;;4.93;4.53;;;24.60;50.80;;;23.47;44.41;94560.53;4977200;28;20182;-82